Terminal Aerodrome Forecast
Issued by NWS

Home | Current Version | Previous Version | Text Only | Print | Product List | Glossary Off
Versions: 1 2 3 4 5 6 7 8 9 10 11 12 13 14 15 16 17 18 19 20 21 22 23

906
FTUS43 KABR 051120 AAA
TAFATY
TAF AMD
KATY 051120Z 0511/0612 14007KT P6SM BKN250
     FM052200 28018G27KT P6SM BKN020
     FM052300 28019G27KT P6SM BKN015
     FM060100 28019G27KT P6SM BKN020
     FM060300 28018G27KT P6SM BKN035
     FM060600 28020G28KT P6SM BKN025
     FM060700 28020G29KT P6SM BKN035
     FM060900 28021G31KT P6SM BKN030=

USA.gov is the U.S. government's official web portal to all federal, state and local government web resources and services.